Latest Weather Observations for Adelaide (Kent Town)

IDS60901

Issued at 7:41 pm CDT Saturday 16 February 2019 (issued every 10 minutes, with the page automatically refreshed every 10 minutes)

About weather observations | Map of Adelaide area stations | Latest observations for Adelaide area | Other Formats
Station Details ID: 023090 Name: KENT TOWN Lat: -34.92 Lon: 138.62 Height: 48.0 m
Data from the previous 72 hours. | See also: Recent months at Adelaide (Kent Town)
Date/Time
CDT
Temp
°C
App
Temp
°C
Dew
Point
°C
Rel
Hum
%
Delta-T
°C
Wind Press
QNH
hPa
Press
MSL
hPa
Rain since
9am
mm
Dir  Spd
km/h
Gust
km/h
Spd
kts
Gust
kts
16/07:30pm 27.1 24.0 5.4 25 11.2 WSW 11 19 6 10 1014.8 1014.6 0.0
16/07:00pm 27.7 24.5 7.0 27 11.0 WSW 13 22 7 12 1014.6 1014.4 0.0
16/06:30pm 29.0 25.0 3.0 19 13.0 WSW 13 22 7 12 1014.7 1014.5 0.0
16/06:00pm 29.4 24.7 0.8 16 13.8 WSW 15 20 8 11 1014.8 1014.6 0.0
16/05:30pm 30.2 25.2 -1.1 13 14.7 WSW 15 22 8 12 1015.0 1014.8 0.0
16/05:00pm 30.6 26.1 0.0 14 14.7 WSW 13 20 7 11 1014.9 1014.7 0.0
16/04:30pm 30.7 26.0 0.7 14 14.6 W 15 22 8 12 1015.1 1014.9 0.0
16/04:00pm 31.0 26.9 2.2 16 14.4 W 13 20 7 11 1015.4 1015.2 0.0
16/03:30pm 30.9 28.0 4.5 19 13.7 WSW 9 17 5 9 1015.8 1015.6 0.0
16/03:00pm 30.1 27.2 6.5 22 12.6 W 11 22 6 12 1016.2 1016.0 0.0
16/02:30pm 30.8 27.5 8.1 24 12.5 W 15 22 8 12 1016.7 1016.5 0.0
16/02:00pm 30.0 26.6 7.8 25 12.1 WSW 15 22 8 12 1017.2 1017.0 0.0
16/01:30pm 29.2 26.4 8.7 27 11.3 W 13 22 7 12 1017.3 1017.1 0.0
16/01:00pm 30.1 28.1 8.6 26 11.9 WNW 9 17 5 9 1017.7 1017.5 0.0
16/12:30pm 28.8 26.9 10.4 31 10.4 W 11 17 6 9 1018.1 1017.9 0.0
16/12:00pm 28.2 26.8 10.8 33 9.9 SW 9 13 5 7 1018.6 1018.4 0.0
16/11:30am 27.2 25.9 10.0 34 9.6 WSW 7 13 4 7 1019.1 1018.9 0.0
16/11:00am 26.8 25.2 8.6 31 9.9 W 7 9 4 5 1019.2 1019.0 0.0
16/10:30am 25.1 23.8 9.1 36 8.7 WSW 6 9 3 5 1019.3 1019.1 0.0
16/10:00am 24.2 23.0 9.5 39 8.0 SSW 6 11 3 6 1019.5 1019.3 0.0
16/09:30am 22.6 21.9 9.9 44 6.9 WSW 4 7 2 4 1019.5 1019.3 0.0
16/09:00am 21.5 21.1 9.8 47 6.3 W 2 6 1 3 1019.4 1019.2 0.0
16/08:30am 20.3 20.2 9.4 49 5.8 CALM 0 0 0 0 1019.5 1019.3 0.0
16/08:00am 18.5 17.0 8.4 51 5.2 SE 6 7 3 4 1019.4 1019.2 0.0
16/07:30am 15.6 15.5 9.4 66 3.2 CALM 0 0 0 0 1019.3 1019.1 0.0
16/07:00am 15.5 15.4 9.5 67 3.1 CALM 0 6 0 3 1018.8 1018.6 0.0
16/06:30am 15.9 14.7 9.5 66 3.3 SSE 6 7 3 4 1018.6 1018.4 0.0
16/06:00am 15.4 15.4 9.8 69 2.9 CALM 0 0 0 0 1018.2 1018.0 0.0
16/05:30am 16.1 16.2 10.0 67 3.2 CALM 0 0 0 0 1017.9 1017.7 0.0
16/05:00am 16.6 16.6 9.9 64 3.5 CALM 0 0 0 0 1018.0 1017.8 0.0
16/04:30am 16.6 16.7 10.2 66 3.4 CALM 0 0 0 0 1018.2 1018.0 0.0
16/04:00am 16.7 16.9 10.5 67 3.3 CALM 0 0 0 0 1018.8 1018.6 0.0
16/03:30am 17.0 17.1 10.2 64 3.6 CALM 0 0 0 0 1019.0 1018.8 0.0
16/03:00am 17.4 17.4 9.8 61 4.0 CALM 0 0 0 0 1019.2 1019.0 0.0
16/02:30am 17.5 17.8 11.0 65 3.5 CALM 0 0 0 0 1019.6 1019.4 0.0
16/02:00am 18.2 18.4 10.6 61 4.1 CALM 0 6 0 3 1019.9 1019.7 0.0
16/01:30am 18.7 17.9 9.8 56 4.7 ESE 4 7 2 4 1020.0 1019.8 0.0
16/01:00am 18.8 19.1 10.9 60 4.3 CALM 0 0 0 0 1020.2 1019.9 0.0
16/12:30am 19.0 19.1 10.2 56 4.7 CALM 0 0 0 0 1020.0 1019.8 0.0
16/12:00am 20.1 18.8 9.1 49 5.8 ESE 6 9 3 5 1020.4 1020.1 0.0
 
Date/Time
CDT
Temp
°C
App
Temp
°C
Dew
Point
°C
Rel
Hum
%
Delta-T
°C
Wind Press
QNH
hPa
Press
MSL
hPa
Rain since
9am
mm
Dir  Spd
km/h
Gust
km/h
Spd
kts
Gust
kts
15/11:30pm 20.2 18.9 9.2 49 5.8 ESE 6 11 3 6 1020.7 1020.4 0.0
15/11:00pm 20.3 19.7 10.3 52 5.4 ESE 4 7 2 4 1020.8 1020.5 0.0
15/10:30pm 20.8 19.7 10.7 52 5.5 ESE 7 13 4 7 1020.9 1020.6 0.0
15/10:00pm 21.1 20.2 11.3 53 5.4 SE 7 11 4 6 1020.8 1020.5 0.0
15/09:30pm 21.6 20.7 11.3 52 5.7 SE 7 13 4 7 1020.6 1020.3 0.0
15/09:00pm 22.3 21.5 11.8 51 5.9 SE 7 15 4 8 1020.3 1020.0 0.0
15/08:30pm 23.0 21.9 12.0 50 6.2 SE 9 17 5 9 1019.8 1019.6 0.0
15/08:00pm 24.5 24.0 12.7 47 6.8 SSE 7 15 4 8 1019.6 1019.4 0.0
15/07:30pm 25.5 23.8 12.3 43 7.6 SE 13 20 7 11 1019.1 1018.9 0.0
15/07:00pm 26.6 23.8 7.1 29 10.3 WSW 11 20 6 11 1018.9 1018.7 0.0
15/06:30pm 27.9 23.8 6.4 25 11.3 W 17 28 9 15 1019.1 1018.9 0.0
15/06:00pm 28.5 25.1 5.7 23 11.9 WSW 13 22 7 12 1019.2 1019.0 0.0
15/05:30pm 28.5 25.4 5.7 23 11.9 SW 11 20 6 11 1019.5 1019.3 0.0
15/05:00pm 28.3 24.8 5.3 23 11.9 WSW 13 20 7 11 1019.5 1019.3 0.0
15/04:30pm 28.4 24.8 4.8 22 12.1 SW 13 22 7 12 1019.8 1019.6 0.0
15/04:00pm 28.6 24.7 5.5 23 12.0 WSW 15 28 8 15 1020.2 1019.9 0.0
15/03:30pm 28.3 24.4 5.3 23 11.9 WSW 15 30 8 16 1020.6 1020.3 0.0
15/03:00pm 29.0 25.0 6.6 24 11.9 W 17 28 9 15 1020.8 1020.5 0.0
15/02:30pm 28.9 24.8 6.1 23 12.0 WSW 17 26 9 14 1021.2 1020.9 0.0
15/02:00pm 29.5 26.4 7.2 24 12.0 W 13 17 7 9 1021.4 1021.1 0.0
15/01:30pm 28.1 25.5 7.9 28 10.9 WSW 11 19 6 10 1021.8 1021.5 0.0
15/01:00pm 27.3 25.6 9.8 33 9.7 WSW 9 17 5 9 1022.2 1022.0 0.0
15/12:30pm 27.8 26.3 10.6 34 9.7 W 9 17 5 9 1022.5 1022.3 0.0
15/12:00pm 27.6 26.2 9.0 31 10.2 NNW 6 17 3 9 1022.9 1022.7 0.0
15/11:30am 25.6 24.1 9.0 35 9.0 NE 7 15 4 8 1023.1 1022.9 0.0
15/11:00am 25.1 23.9 10.3 39 8.2 WNW 7 13 4 7 1023.4 1023.2 0.0
15/10:30am 23.3 22.8 10.6 44 7.0 SW 4 9 2 5 1023.7 1023.5 0.0
15/10:00am 22.1 21.2 10.6 48 6.3 SW 6 13 3 7 1024.0 1023.8 0.0
15/09:30am 20.7 19.8 10.6 52 5.5 WSW 6 9 3 5 1023.8 1023.6 0.0
15/09:00am 19.5 18.6 10.6 56 4.8 WSW 6 9 3 5 1023.6 1023.4 0.0
15/08:30am 18.3 18.4 10.2 59 4.3 CALM 0 0 0 0 1023.4 1023.2 0.0
15/08:00am 16.3 16.6 10.9 70 2.9 CALM 0 0 0 0 1023.0 1022.8 0.0
15/07:30am 14.8 15.0 10.6 76 2.2 CALM 0 0 0 0 1022.7 1022.5 0.0
15/07:00am 13.8 14.1 10.9 83 1.5 CALM 0 0 0 0 1022.3 1022.1 0.0
15/06:30am 13.8 14.0 10.7 81 1.6 CALM 0 0 0 0 1021.8 1021.5 0.0
15/06:00am 14.2 14.5 11.0 81 1.7 CALM 0 0 0 0 1021.7 1021.4 0.0
15/05:30am 14.6 14.5 10.8 78 2.0 ESE 2 9 1 5 1021.7 1021.4 0.0
15/05:00am 14.2 14.5 11.0 81 1.7 CALM 0 0 0 0 1021.8 1021.5 0.0
15/04:30am 14.6 14.9 11.0 79 1.9 CALM 0 0 0 0 1021.9 1021.6 0.0
15/04:00am 15.3 14.5 11.0 75 2.3 ESE 6 11 3 6 1022.2 1022.0 0.0
15/03:30am 15.4 15.0 11.1 75 2.3 ESE 4 7 2 4 1022.2 1022.0 0.0
15/03:00am 16.0 15.1 10.7 71 2.8 SE 6 9 3 5 1022.2 1022.0 0.0
15/02:30am 15.9 15.9 11.0 72 2.6 SSE 2 9 1 5 1022.0 1021.8 0.0
15/02:00am 15.9 16.2 11.0 72 2.6 CALM 0 0 0 0 1022.0 1021.8 0.0
15/01:30am 16.5 15.7 10.9 69 3.0 ESE 6 9 3 5 1022.2 1022.0 0.0
15/01:00am 16.9 15.4 10.7 67 3.3 SE 9 15 5 8 1022.4 1022.2 0.0
15/12:30am 17.2 15.7 10.4 64 3.6 SE 9 15 5 8 1022.4 1022.2 0.0
15/12:00am 17.3 16.3 10.3 63 3.7 ESE 6 15 3 8 1022.4 1022.2 0.0
 
Date/Time
CDT
Temp
°C
App
Temp
°C
Dew
Point
°C
Rel
Hum
%
Delta-T
°C
Wind Press
QNH
hPa
Press
MSL
hPa
Rain since
9am
mm
Dir  Spd
km/h
Gust
km/h
Spd
kts
Gust
kts
14/11:30pm 17.4 16.4 10.4 63 3.7 ESE 6 11 3 6 1022.2 1022.0 0.0
14/11:00pm 17.7 16.0 9.9 60 4.1 SE 9 15 5 8 1022.3 1022.1 0.0
14/10:30pm 17.9 16.2 9.7 58 4.3 SE 9 20 5 11 1022.2 1022.0 0.0
14/10:00pm 18.2 16.8 9.7 57 4.5 SSE 7 13 4 7 1022.1 1021.9 0.0
14/09:30pm 18.7 17.4 9.8 56 4.7 SSE 7 13 4 7 1021.8 1021.5 0.0
14/09:00pm 19.7 18.0 9.7 52 5.3 SE 9 13 5 7 1021.7 1021.4 0.0
14/08:30pm 20.4 19.2 9.5 49 5.8 SSW 6 9 3 5 1021.3 1021.0 0.0
14/08:00pm 20.8 18.7 9.8 49 5.9 WSW 11 17 6 9 1021.0 1020.7 0.0
14/07:30pm 21.4 17.9 8.7 44 6.7 WSW 17 26 9 14 1020.7 1020.4 0.0
14/07:00pm 22.0 19.0 9.1 43 6.9 WSW 15 28 8 15 1020.6 1020.3 0.0
14/06:30pm 22.6 20.0 9.2 42 7.2 WSW 13 24 7 13 1020.6 1020.3 0.0
14/06:00pm 21.3 17.9 9.1 45 6.5 W 17 24 9 13 1020.5 1020.2 0.0
14/05:30pm 22.6 19.1 8.9 41 7.3 WSW 17 26 9 14 1020.5 1020.2 0.0
14/05:00pm 23.4 20.2 8.6 38 7.9 WSW 15 24 8 13 1020.5 1020.2 0.0
14/04:30pm 23.5 20.5 9.2 40 7.7 W 15 26 8 14 1020.7 1020.4 0.0
14/04:00pm 22.5 19.9 9.5 43 7.0 WSW 13 22 7 12 1021.2 1020.9 0.0
14/03:30pm 22.5 19.9 9.3 43 7.1 WSW 13 20 7 11 1021.5 1021.2 0.0
14/03:00pm 22.8 19.8 9.2 42 7.3 W 15 24 8 13 1021.8 1021.5 0.0
14/02:30pm 22.3 19.3 9.2 43 7.0 WSW 15 20 8 11 1021.9 1021.6 0.0
14/02:00pm 23.5 20.6 9.5 41 7.6 WSW 15 24 8 13 1022.0 1021.8 0.0
14/01:30pm 20.8 18.1 8.8 46 6.3 WSW 13 22 7 12 1022.1 1021.9 0.0
14/01:00pm 22.0 18.9 9.0 43 6.9 WSW 15 26 8 14 1022.2 1022.0 0.0
14/12:30pm 22.0 19.3 8.8 43 7.0 WSW 13 26 7 14 1022.4 1022.2 0.0
14/12:00pm 21.6 19.2 8.5 43 6.9 SW 11 20 6 11 1022.4 1022.2 0.0
14/11:30am 21.2 19.8 7.1 40 7.2 SE 4 9 2 5 1022.4 1022.2 0.0
14/11:00am 20.4 18.1 7.5 43 6.6 W 9 15 5 8 1022.5 1022.3 0.0
14/10:30am 19.9 18.1 7.8 45 6.2 NE 7 11 4 6 1022.3 1022.1 0.0
14/10:00am 18.8 17.1 7.6 48 5.7 SSE 6 15 3 8 1022.4 1022.2 0.0
14/09:30am 18.6 16.7 7.6 48 5.6 SE 7 15 4 8 1022.4 1022.2 0.0
14/09:00am 18.4 16.6 8.0 50 5.3 SE 7 15 4 8 1022.1 1021.9 0.0
14/08:30am 16.5 16.3 8.9 61 3.9 CALM 0 0 0 0 1021.9 1021.6 0.0
14/08:00am 14.0 13.6 8.4 69 2.8 CALM 0 0 0 0 1021.6 1021.3 0.0
14/07:30am 12.8 12.3 7.9 72 2.4 CALM 0 0 0 0 1021.4 1021.1 0.0
14/07:00am 11.9 11.4 8.0 77 1.9 CALM 0 0 0 0 1021.0 1020.7 0.0
14/06:30am 12.0 11.6 8.3 78 1.8 CALM 0 0 0 0 1020.7 1020.4 0.0
14/06:00am 12.3 11.9 8.2 76 2.0 CALM 0 0 0 0 1020.5 1020.2 0.0
14/05:30am 12.1 11.7 8.2 77 1.9 CALM 0 0 0 0 1020.4 1020.1 0.0
14/05:00am 12.6 12.1 7.7 72 2.4 CALM 0 0 0 0 1020.5 1020.2 0.0
14/04:30am 12.6 12.1 7.7 72 2.4 CALM 0 6 0 3 1020.5 1020.2 0.0
14/04:00am 12.3 11.8 8.0 75 2.1 CALM 0 0 0 0 1020.4 1020.1 0.0
14/03:30am 12.7 12.2 7.8 72 2.4 CALM 0 7 0 4 1020.4 1020.1 0.0
14/03:00am 13.0 12.5 7.9 71 2.5 CALM 0 0 0 0 1020.4 1020.1 0.0
14/02:30am 13.4 12.9 7.9 69 2.7 CALM 0 0 0 0 1020.4 1020.1 0.0
14/02:00am 13.2 12.8 8.2 71 2.5 CALM 0 4 0 2 1020.4 1020.1 0.0
14/01:30am 13.5 12.7 8.0 69 2.7 SW 2 7 1 4 1020.5 1020.2 0.0
14/01:00am 14.1 13.2 7.6 65 3.2 ESE 2 7 1 4 1020.5 1020.2 0.0
14/12:30am 14.5 13.8 7.1 61 3.6 CALM 0 0 0 0 1020.5 1020.2 0.0
14/12:00am 14.6 13.6 7.5 62 3.5 SSE 2 6 1 3 1020.4 1020.1 0.0
 
Date/Time
CDT
Temp
°C
App
Temp
°C
Dew
Point
°C
Rel
Hum
%
Delta-T
°C
Wind Press
QNH
hPa
Press
MSL
hPa
Rain since
9am
mm
Dir  Spd
km/h
Gust
km/h
Spd
kts
Gust
kts
13/11:30pm 15.0 13.9 7.0 59 3.9 S 2 7 1 4 1020.4 1020.1 0.0
13/11:00pm 15.4 13.8 6.3 54 4.4 SSE 4 11 2 6 1020.3 1020.0 0.0
13/10:30pm 15.6 14.2 7.1 57 4.2 SSE 4 11 2 6 1020.3 1020.0 0.0
13/10:00pm 16.0 13.9 6.8 54 4.5 SSE 7 13 4 7 1020.0 1019.8 0.0
13/09:30pm 16.3 14.3 7.2 55 4.5 SSE 7 13 4 7 1019.8 1019.6 0.0
13/09:00pm 16.8 14.8 7.2 53 4.8 SE 7 13 4 7 1019.5 1019.3 0.0
13/08:30pm 17.5 15.6 6.8 49 5.3 SE 6 11 3 6 1019.1 1018.9 0.0
13/08:00pm 18.6 16.3 5.7 42 6.3 S 7 15 4 8 1018.6 1018.4 0.0

Latest Capital City Observations: Canberra | Sydney | Melbourne | Brisbane | Adelaide | Perth | Hobart | Darwin

Other Formats:

Comma delimited format used in spreadsheet applications
http://www.bom.gov.au/fwo/IDS60901/IDS60901.94675.axf

JavaScript Object Notation format (JSON) in row-major order
http://www.bom.gov.au/fwo/IDS60901/IDS60901.94675.json